sensor_id;sensor_type;location;lat;lon;timestamp;pressure;altitude;pressure_sealevel;temperature;humidity
6778;BME280;3426;52.244;10.534;2023-02-07T00:01:10;103371.75;;;2.60;65.50
6778;BME280;3426;52.244;10.534;2023-02-07T00:03:37;103362.09;;;2.56;64.59
6778;BME280;3426;52.244;10.534;2023-02-07T00:06:12;103367.97;;;2.46;64.92
6778;BME280;3426;52.244;10.534;2023-02-07T00:08:40;103365.09;;;2.35;65.68
6778;BME280;3426;52.244;10.534;2023-02-07T00:11:12;103358.66;;;2.59;65.02
6778;BME280;3426;52.244;10.534;2023-02-07T00:13:42;103357.66;;;2.54;65.61
6778;BME280;3426;52.244;10.534;2023-02-07T00:16:09;103353.91;;;2.80;64.11
6778;BME280;3426;52.244;10.534;2023-02-07T00:18:36;103351.78;;;3.06;63.61
6778;BME280;3426;52.244;10.534;2023-02-07T00:21:06;103348.28;;;3.04;62.61
6778;BME280;3426;52.244;10.534;2023-02-07T00:23:34;103346.09;;;3.27;63.12
6778;BME280;3426;52.244;10.534;2023-02-07T00:26:01;103340.78;;;2.79;63.67
6778;BME280;3426;52.244;10.534;2023-02-07T00:28:27;103344.56;;;2.93;64.30
6778;BME280;3426;52.244;10.534;2023-02-07T00:31:11;103353.38;;;2.56;64.75
6778;BME280;3426;52.244;10.534;2023-02-07T00:33:39;103344.22;;;2.78;64.05
6778;BME280;3426;52.244;10.534;2023-02-07T00:36:09;103349.00;;;2.96;62.92
6778;BME280;3426;52.244;10.534;2023-02-07T00:38:36;103341.81;;;3.29;62.73
6778;BME280;3426;52.244;10.534;2023-02-07T00:41:03;103356.50;;;2.41;64.62
6778;BME280;3426;52.244;10.534;2023-02-07T00:43:30;103339.72;;;2.31;64.83
6778;BME280;3426;52.244;10.534;2023-02-07T00:45:58;103345.53;;;2.56;63.81
6778;BME280;3426;52.244;10.534;2023-02-07T00:48:26;103348.03;;;2.92;63.22
6778;BME280;3426;52.244;10.534;2023-02-07T00:50:53;103353.09;;;3.27;62.32
6778;BME280;3426;52.244;10.534;2023-02-07T00:53:20;103349.41;;;3.17;61.64
6778;BME280;3426;52.244;10.534;2023-02-07T00:55:46;103336.06;;;2.61;63.42
6778;BME280;3426;52.244;10.534;2023-02-07T00:58:13;103336.00;;;2.59;62.81
6778;BME280;3426;52.244;10.534;2023-02-07T01:00:39;103339.69;;;2.69;63.35
6778;BME280;3426;52.244;10.534;2023-02-07T01:03:06;103334.06;;;2.51;62.82
6778;BME280;3426;52.244;10.534;2023-02-07T01:05:32;103329.22;;;2.68;61.40
6778;BME280;3426;52.244;10.534;2023-02-07T01:07:59;103333.19;;;2.50;62.45
6778;BME280;3426;52.244;10.534;2023-02-07T01:10:25;103335.69;;;2.85;61.57
6778;BME280;3426;52.244;10.534;2023-02-07T01:12:52;103330.81;;;2.61;62.17
6778;BME280;3426;52.244;10.534;2023-02-07T01:15:18;103340.03;;;2.84;61.39
6778;BME280;3426;52.244;10.534;2023-02-07T01:17:45;103341.59;;;2.76;61.09
6778;BME280;3426;52.244;10.534;2023-02-07T01:20:12;103326.03;;;3.28;60.17
6778;BME280;3426;52.244;10.534;2023-02-07T01:22:39;103320.59;;;3.17;60.26
6778;BME280;3426;52.244;10.534;2023-02-07T01:25:06;103311.84;;;3.15;59.42
6778;BME280;3426;52.244;10.534;2023-02-07T01:27:34;103326.13;;;3.32;60.23
6778;BME280;3426;52.244;10.534;2023-02-07T01:30:01;103325.22;;;3.30;59.67
6778;BME280;3426;52.244;10.534;2023-02-07T01:32:27;103327.34;;;2.23;63.14
6778;BME280;3426;52.244;10.534;2023-02-07T01:34:54;103320.88;;;2.46;63.35
6778;BME280;3426;52.244;10.534;2023-02-07T01:37:20;103319.81;;;0.99;67.85
6778;BME280;3426;52.244;10.534;2023-02-07T01:39:46;103313.31;;;1.15;68.52
6778;BME280;3426;52.244;10.534;2023-02-07T01:42:13;103317.41;;;2.47;64.37
6778;BME280;3426;52.244;10.534;2023-02-07T01:47:10;103321.03;;;1.78;66.88
6778;BME280;3426;52.244;10.534;2023-02-07T01:49:39;103316.19;;;2.72;63.62
6778;BME280;3426;52.244;10.534;2023-02-07T01:52:10;103315.63;;;2.85;62.26
6778;BME280;3426;52.244;10.534;2023-02-07T01:54:38;103311.91;;;2.74;61.82
6778;BME280;3426;52.244;10.534;2023-02-07T01:57:08;103304.16;;;2.80;61.65
6778;BME280;3426;52.244;10.534;2023-02-07T01:59:38;103301.00;;;2.97;61.34
6778;BME280;3426;52.244;10.534;2023-02-07T02:02:11;103306.25;;;2.97;60.95
6778;BME280;3426;52.244;10.534;2023-02-07T02:04:40;103306.91;;;2.86;61.08
6778;BME280;3426;52.244;10.534;2023-02-07T02:07:09;103306.56;;;2.70;61.67
6778;BME280;3426;52.244;10.534;2023-02-07T02:09:36;103312.28;;;2.50;62.10
6778;BME280;3426;52.244;10.534;2023-02-07T02:31:01;103280.53;;;1.59;65.37
6778;BME280;3426;52.244;10.534;2023-02-07T02:39:09;103262.34;;;2.39;62.97
6778;BME280;3426;52.244;10.534;2023-02-07T02:41:57;103257.84;;;1.95;63.60
6778;BME280;3426;52.244;10.534;2023-02-07T02:44:32;103251.38;;;2.17;63.20
6778;BME280;3426;52.244;10.534;2023-02-07T02:47:01;103246.78;;;2.46;62.31
6778;BME280;3426;52.244;10.534;2023-02-07T02:49:29;103250.56;;;2.21;63.07
6778;BME280;3426;52.244;10.534;2023-02-07T02:51:58;103246.66;;;2.39;61.76
6778;BME280;3426;52.244;10.534;2023-02-07T02:54:30;103244.28;;;2.11;62.79
6778;BME280;3426;52.244;10.534;2023-02-07T02:57:01;103246.16;;;1.79;63.06
6778;BME280;3426;52.244;10.534;2023-02-07T02:59:44;103254.16;;;1.86;63.11
6778;BME280;3426;52.244;10.534;2023-02-07T03:02:38;103243.78;;;1.90;63.26
6778;BME280;3426;52.244;10.534;2023-02-07T03:08:28;103235.94;;;1.90;63.31
6778;BME280;3426;52.244;10.534;2023-02-07T03:13:57;103232.31;;;1.47;65.26
6778;BME280;3426;52.244;10.534;2023-02-07T03:16:51;103234.25;;;1.54;65.36
6778;BME280;3426;52.244;10.534;2023-02-07T03:19:25;103225.75;;;1.64;65.05
6778;BME280;3426;52.244;10.534;2023-02-07T03:22:01;103226.09;;;1.78;63.69
6778;BME280;3426;52.244;10.534;2023-02-07T03:24:40;103248.53;;;2.06;63.47
6778;BME280;3426;52.244;10.534;2023-02-07T03:27:11;103251.25;;;1.74;64.55
6778;BME280;3426;52.244;10.534;2023-02-07T03:29:41;103255.63;;;1.75;64.80
6778;BME280;3426;52.244;10.534;2023-02-07T03:32:10;103261.56;;;1.68;65.11
6778;BME280;3426;52.244;10.534;2023-02-07T03:34:57;103259.53;;;1.56;65.28
6778;BME280;3426;52.244;10.534;2023-02-07T03:37:38;103263.44;;;1.74;65.75
6778;BME280;3426;52.244;10.534;2023-02-07T03:40:07;103265.59;;;1.92;65.02
6778;BME280;3426;52.244;10.534;2023-02-07T03:42:41;103260.56;;;1.63;66.23
6778;BME280;3426;52.244;10.534;2023-02-07T03:45:12;103253.81;;;2.09;64.77
6778;BME280;3426;52.244;10.534;2023-02-07T03:47:40;103255.03;;;1.87;64.73
6778;BME280;3426;52.244;10.534;2023-02-07T03:50:07;103260.56;;;1.99;64.31
6778;BME280;3426;52.244;10.534;2023-02-07T03:52:34;103247.03;;;2.17;64.08
6778;BME280;3426;52.244;10.534;2023-02-07T03:55:00;103250.66;;;2.24;63.37
6778;BME280;3426;52.244;10.534;2023-02-07T03:57:27;103250.25;;;2.05;63.95
6778;BME280;3426;52.244;10.534;2023-02-07T03:59:53;103252.38;;;2.22;63.60
6778;BME280;3426;52.244;10.534;2023-02-07T04:02:20;103241.16;;;2.27;63.26
6778;BME280;3426;52.244;10.534;2023-02-07T04:04:46;103249.66;;;2.19;63.38
6778;BME280;3426;52.244;10.534;2023-02-07T04:07:13;103260.81;;;1.38;65.89
6778;BME280;3426;52.244;10.534;2023-02-07T04:09:40;103267.47;;;1.97;64.71
6778;BME280;3426;52.244;10.534;2023-02-07T04:12:06;103268.84;;;2.19;63.42
6778;BME280;3426;52.244;10.534;2023-02-07T04:14:33;103245.41;;;2.22;62.88
6778;BME280;3426;52.244;10.534;2023-02-07T04:16:59;103258.03;;;2.04;62.71
6778;BME280;3426;52.244;10.534;2023-02-07T04:19:26;103259.75;;;2.02;64.29
6778;BME280;3426;52.244;10.534;2023-02-07T04:21:52;103258.34;;;2.16;63.17
6778;BME280;3426;52.244;10.534;2023-02-07T04:24:19;103253.06;;;2.15;62.86
6778;BME280;3426;52.244;10.534;2023-02-07T04:26:45;103264.47;;;1.80;64.05
6778;BME280;3426;52.244;10.534;2023-02-07T04:29:12;103256.75;;;1.85;64.56
6778;BME280;3426;52.244;10.534;2023-02-07T04:31:38;103246.03;;;2.12;63.50
6778;BME280;3426;52.244;10.534;2023-02-07T04:34:07;103251.06;;;2.03;63.55
6778;BME280;3426;52.244;10.534;2023-02-07T04:36:35;103257.56;;;1.82;62.99
6778;BME280;3426;52.244;10.534;2023-02-07T04:39:02;103260.72;;;1.69;65.13
6778;BME280;3426;52.244;10.534;2023-02-07T04:41:28;103261.66;;;1.37;65.13
6778;BME280;3426;52.244;10.534;2023-02-07T04:43:55;103261.66;;;1.71;64.52
6778;BME280;3426;52.244;10.534;2023-02-07T04:46:22;103268.06;;;1.85;63.79
6778;BME280;3426;52.244;10.534;2023-02-07T04:48:48;103266.19;;;1.78;63.45
6778;BME280;3426;52.244;10.534;2023-02-07T04:51:15;103264.38;;;1.41;65.44
6778;BME280;3426;52.244;10.534;2023-02-07T04:53:41;103265.75;;;1.60;65.45
6778;BME280;3426;52.244;10.534;2023-02-07T04:56:08;103268.03;;;1.82;64.01
6778;BME280;3426;52.244;10.534;2023-02-07T04:58:35;103267.94;;;1.79;63.92
6778;BME280;3426;52.244;10.534;2023-02-07T05:01:01;103262.88;;;1.87;63.69
6778;BME280;3426;52.244;10.534;2023-02-07T05:03:27;103270.63;;;1.82;64.48
6778;BME280;3426;52.244;10.534;2023-02-07T05:05:54;103272.28;;;1.43;65.62
6778;BME280;3426;52.244;10.534;2023-02-07T05:08:21;103274.81;;;1.76;64.58
6778;BME280;3426;52.244;10.534;2023-02-07T05:10:52;103270.06;;;1.59;64.98
6778;BME280;3426;52.244;10.534;2023-02-07T05:13:19;103265.31;;;1.79;64.27
6778;BME280;3426;52.244;10.534;2023-02-07T05:15:46;103262.72;;;1.79;64.20
6778;BME280;3426;52.244;10.534;2023-02-07T05:18:12;103273.09;;;1.76;64.14
6778;BME280;3426;52.244;10.534;2023-02-07T05:20:39;103279.38;;;1.84;64.12
6778;BME280;3426;52.244;10.534;2023-02-07T05:23:06;103281.09;;;1.82;63.93
6778;BME280;3426;52.244;10.534;2023-02-07T05:25:32;103284.16;;;1.66;63.78
6778;BME280;3426;52.244;10.534;2023-02-07T05:27:58;103291.47;;;1.46;64.89
6778;BME280;3426;52.244;10.534;2023-02-07T05:30:25;103292.84;;;1.30;65.94
6778;BME280;3426;52.244;10.534;2023-02-07T05:32:52;103295.25;;;1.57;64.77
6778;BME280;3426;52.244;10.534;2023-02-07T05:35:34;103301.69;;;1.70;64.18
6778;BME280;3426;52.244;10.534;2023-02-07T05:38:02;103287.41;;;1.57;65.26
6778;BME280;3426;52.244;10.534;2023-02-07T05:40:31;103282.94;;;1.52;65.11
6778;BME280;3426;52.244;10.534;2023-02-07T05:42:57;103278.09;;;1.32;65.36
6778;BME280;3426;52.244;10.534;2023-02-07T05:45:24;103283.84;;;1.19;65.63
6778;BME280;3426;52.244;10.534;2023-02-07T05:47:50;103281.84;;;1.11;66.83
6778;BME280;3426;52.244;10.534;2023-02-07T05:50:17;103281.97;;;1.15;66.20
6778;BME280;3426;52.244;10.534;2023-02-07T05:52:44;103279.94;;;1.03;66.53
6778;BME280;3426;52.244;10.534;2023-02-07T05:55:11;103287.84;;;0.75;68.29
6778;BME280;3426;52.244;10.534;2023-02-07T05:57:40;103294.00;;;0.78;67.91
6778;BME280;3426;52.244;10.534;2023-02-07T06:00:09;103295.28;;;0.93;67.63
6778;BME280;3426;52.244;10.534;2023-02-07T06:02:38;103291.75;;;1.22;66.75
6778;BME280;3426;52.244;10.534;2023-02-07T06:05:10;103300.94;;;1.08;66.45
6778;BME280;3426;52.244;10.534;2023-02-07T06:07:37;103298.53;;;1.16;66.74
6778;BME280;3426;52.244;10.534;2023-02-07T06:10:05;103314.81;;;1.07;66.26
6778;BME280;3426;52.244;10.534;2023-02-07T06:12:32;103314.28;;;0.89;67.64
6778;BME280;3426;52.244;10.534;2023-02-07T06:14:59;103307.41;;;0.61;68.72
6778;BME280;3426;52.244;10.534;2023-02-07T06:17:26;103295.91;;;0.54;69.77
6778;BME280;3426;52.244;10.534;2023-02-07T06:19:52;103301.81;;;0.78;69.19
6778;BME280;3426;52.244;10.534;2023-02-07T06:22:19;103309.69;;;1.10;67.69
6778;BME280;3426;52.244;10.534;2023-02-07T06:24:45;103304.00;;;1.25;66.88
6778;BME280;3426;52.244;10.534;2023-02-07T06:27:12;103299.50;;;1.19;66.52
6778;BME280;3426;52.244;10.534;2023-02-07T06:29:38;103303.88;;;1.20;66.82
6778;BME280;3426;52.244;10.534;2023-02-07T06:32:05;103310.97;;;0.94;66.73
6778;BME280;3426;52.244;10.534;2023-02-07T06:34:31;103311.38;;;1.08;67.64
6778;BME280;3426;52.244;10.534;2023-02-07T06:36:58;103310.50;;;1.41;66.66
6778;BME280;3426;52.244;10.534;2023-02-07T06:39:24;103312.25;;;1.09;67.16
6778;BME280;3426;52.244;10.534;2023-02-07T06:41:52;103316.47;;;0.73;67.55
6778;BME280;3426;52.244;10.534;2023-02-07T06:44:18;103319.09;;;0.45;70.14
6778;BME280;3426;52.244;10.534;2023-02-07T06:46:45;103320.56;;;0.95;67.16
6778;BME280;3426;52.244;10.534;2023-02-07T06:49:11;103306.13;;;0.76;67.28
6778;BME280;3426;52.244;10.534;2023-02-07T06:51:38;103311.13;;;0.69;68.31
6778;BME280;3426;52.244;10.534;2023-02-07T06:54:04;103321.09;;;0.84;66.39
6778;BME280;3426;52.244;10.534;2023-02-07T06:56:36;103319.66;;;0.93;66.44
6778;BME280;3426;52.244;10.534;2023-02-07T06:59:02;103320.09;;;0.21;68.16
6778;BME280;3426;52.244;10.534;2023-02-07T07:01:29;103323.00;;;0.59;68.21
6778;BME280;3426;52.244;10.534;2023-02-07T07:03:56;103320.00;;;0.75;67.41
6778;BME280;3426;52.244;10.534;2023-02-07T07:06:22;103330.63;;;1.13;66.53
6778;BME280;3426;52.244;10.534;2023-02-07T07:08:49;103323.47;;;1.06;66.35
6778;BME280;3426;52.244;10.534;2023-02-07T07:11:17;103321.06;;;0.82;67.04
6778;BME280;3426;52.244;10.534;2023-02-07T07:13:44;103316.41;;;1.02;66.66
6778;BME280;3426;52.244;10.534;2023-02-07T07:16:10;103328.38;;;0.94;66.26
6778;BME280;3426;52.244;10.534;2023-02-07T07:18:37;103317.09;;;1.26;66.23
6778;BME280;3426;52.244;10.534;2023-02-07T07:21:05;103317.69;;;1.16;65.34
6778;BME280;3426;52.244;10.534;2023-02-07T07:23:32;103322.78;;;1.13;66.55
6778;BME280;3426;52.244;10.534;2023-02-07T07:25:58;103315.16;;;1.19;66.11
6778;BME280;3426;52.244;10.534;2023-02-07T07:28:25;103320.38;;;0.88;67.14
6778;BME280;3426;52.244;10.534;2023-02-07T07:30:52;103318.53;;;1.15;66.37
6778;BME280;3426;52.244;10.534;2023-02-07T07:33:18;103320.03;;;1.39;66.46
6778;BME280;3426;52.244;10.534;2023-02-07T07:35:45;103315.66;;;1.38;65.38
6778;BME280;3426;52.244;10.534;2023-02-07T07:38:11;103299.69;;;1.60;65.16
6778;BME280;3426;52.244;10.534;2023-02-07T07:40:38;103305.91;;;1.30;65.40
6778;BME280;3426;52.244;10.534;2023-02-07T07:43:05;103304.59;;;1.48;65.02
6778;BME280;3426;52.244;10.534;2023-02-07T07:45:31;103310.34;;;2.43;63.28
6778;BME280;3426;52.244;10.534;2023-02-07T07:47:58;103308.78;;;2.12;62.10
6778;BME280;3426;52.244;10.534;2023-02-07T07:50:24;103313.41;;;2.63;61.43
6778;BME280;3426;52.244;10.534;2023-02-07T07:52:51;103314.22;;;2.21;61.71
6778;BME280;3426;52.244;10.534;2023-02-07T07:55:17;103309.97;;;3.08;59.60
6778;BME280;3426;52.244;10.534;2023-02-07T07:57:44;103318.00;;;3.67;58.08
6778;BME280;3426;52.244;10.534;2023-02-07T08:00:11;103309.69;;;3.92;56.51
6778;BME280;3426;52.244;10.534;2023-02-07T08:02:37;103303.84;;;4.10;55.28
6778;BME280;3426;52.244;10.534;2023-02-07T08:05:04;103301.88;;;3.95;55.32
6778;BME280;3426;52.244;10.534;2023-02-07T08:07:31;103293.00;;;4.46;55.89
6778;BME280;3426;52.244;10.534;2023-02-07T08:09:57;103297.44;;;4.50;53.26
6778;BME280;3426;52.244;10.534;2023-02-07T08:12:24;103303.31;;;5.04;53.10
6778;BME280;3426;52.244;10.534;2023-02-07T08:14:50;103307.25;;;5.44;52.23
6778;BME280;3426;52.244;10.534;2023-02-07T08:17:17;103310.59;;;5.28;52.53
6778;BME280;3426;52.244;10.534;2023-02-07T08:19:44;103304.31;;;6.09;49.89
6778;BME280;3426;52.244;10.534;2023-02-07T08:22:10;103299.34;;;6.61;48.51
6778;BME280;3426;52.244;10.534;2023-02-07T08:24:37;103302.19;;;7.27;47.26
6778;BME280;3426;52.244;10.534;2023-02-07T08:27:04;103303.91;;;8.31;45.75
6778;BME280;3426;52.244;10.534;2023-02-07T08:29:30;103315.41;;;7.32;45.46
6778;BME280;3426;52.244;10.534;2023-02-07T08:31:57;103306.25;;;9.19;43.46
6778;BME280;3426;52.244;10.534;2023-02-07T08:34:23;103314.22;;;9.13;42.48
6778;BME280;3426;52.244;10.534;2023-02-07T08:36:52;103319.31;;;9.39;41.47
6778;BME280;3426;52.244;10.534;2023-02-07T08:39:18;103320.56;;;8.66;43.16
6778;BME280;3426;52.244;10.534;2023-02-07T08:41:45;103316.72;;;9.36;40.70
6778;BME280;3426;52.244;10.534;2023-02-07T08:44:11;103308.34;;;8.26;42.57
6778;BME280;3426;52.244;10.534;2023-02-07T08:46:38;103312.75;;;8.04;44.15
6778;BME280;3426;52.244;10.534;2023-02-07T08:49:04;103302.09;;;9.97;40.23
6778;BME280;3426;52.244;10.534;2023-02-07T08:51:31;103304.78;;;10.78;39.26
6778;BME280;3426;52.244;10.534;2023-02-07T08:53:57;103316.38;;;9.79;38.88
6778;BME280;3426;52.244;10.534;2023-02-07T08:56:24;103305.56;;;8.73;42.37
6778;BME280;3426;52.244;10.534;2023-02-07T08:58:50;103313.28;;;9.20;41.90
6778;BME280;3426;52.244;10.534;2023-02-07T09:01:17;103314.88;;;9.43;41.12
6778;BME280;3426;52.244;10.534;2023-02-07T09:03:43;103313.19;;;9.33;39.78
6778;BME280;3426;52.244;10.534;2023-02-07T09:06:09;103313.03;;;11.20;38.00
6778;BME280;3426;52.244;10.534;2023-02-07T09:08:36;103301.47;;;11.24;36.94
6778;BME280;3426;52.244;10.534;2023-02-07T09:11:03;103295.69;;;12.07;35.30
6778;BME280;3426;52.244;10.534;2023-02-07T09:13:34;103291.53;;;12.40;34.52
6778;BME280;3426;52.244;10.534;2023-02-07T09:16:01;103281.53;;;12.07;35.46
6778;BME280;3426;52.244;10.534;2023-02-07T09:18:27;103282.09;;;11.73;36.67
6778;BME280;3426;52.244;10.534;2023-02-07T09:20:55;103286.47;;;12.71;34.59
6778;BME280;3426;52.244;10.534;2023-02-07T09:23:21;103287.19;;;11.33;36.86
6778;BME280;3426;52.244;10.534;2023-02-07T09:25:52;103284.91;;;12.61;36.24
6778;BME280;3426;52.244;10.534;2023-02-07T09:28:20;103285.56;;;11.24;36.75
6778;BME280;3426;52.244;10.534;2023-02-07T09:30:47;103288.78;;;12.88;34.45
6778;BME280;3426;52.244;10.534;2023-02-07T09:33:15;103286.66;;;13.03;34.19
6778;BME280;3426;52.244;10.534;2023-02-07T09:35:43;103274.06;;;13.11;33.71
6778;BME280;3426;52.244;10.534;2023-02-07T09:38:14;103270.34;;;13.89;31.72
6778;BME280;3426;52.244;10.534;2023-02-07T09:40:42;103279.41;;;13.48;32.56
6778;BME280;3426;52.244;10.534;2023-02-07T09:43:18;103271.00;;;14.63;31.02
6778;BME280;3426;52.244;10.534;2023-02-07T09:45:56;103280.47;;;13.76;32.51
6778;BME280;3426;52.244;10.534;2023-02-07T09:48:35;103283.53;;;13.24;33.08
6778;BME280;3426;52.244;10.534;2023-02-07T09:51:05;103271.69;;;14.38;31.23
6778;BME280;3426;52.244;10.534;2023-02-07T09:53:50;103274.19;;;14.12;30.74
6778;BME280;3426;52.244;10.534;2023-02-07T09:56:21;103295.72;;;12.52;32.27
6778;BME280;3426;52.244;10.534;2023-02-07T10:01:28;103287.84;;;12.01;33.54
6778;BME280;3426;52.244;10.534;2023-02-07T10:04:21;103297.19;;;12.22;33.44
6778;BME280;3426;52.244;10.534;2023-02-07T10:06:54;103288.34;;;13.81;31.75
6778;BME280;3426;52.244;10.534;2023-02-07T10:09:36;103284.81;;;11.70;35.52
6778;BME280;3426;52.244;10.534;2023-02-07T10:30:51;103295.88;;;8.80;40.14
6778;BME280;3426;52.244;10.534;2023-02-07T10:33:23;103318.88;;;8.53;39.85
6778;BME280;3426;52.244;10.534;2023-02-07T10:35:52;103311.88;;;8.09;40.19
6778;BME280;3426;52.244;10.534;2023-02-07T10:38:33;103310.13;;;8.02;41.23
6778;BME280;3426;52.244;10.534;2023-02-07T10:41:01;103314.22;;;6.56;41.85
6778;BME280;3426;52.244;10.534;2023-02-07T10:43:31;103333.34;;;6.23;44.15
6778;BME280;3426;52.244;10.534;2023-02-07T10:46:01;103323.84;;;6.47;43.69
6778;BME280;3426;52.244;10.534;2023-02-07T10:48:32;103320.38;;;6.52;44.36
6778;BME280;3426;52.244;10.534;2023-02-07T10:51:01;103320.13;;;6.16;45.23
6778;BME280;3426;52.244;10.534;2023-02-07T10:53:46;103321.78;;;5.97;44.23
6778;BME280;3426;52.244;10.534;2023-02-07T10:56:25;103323.53;;;5.99;45.32
6778;BME280;3426;52.244;10.534;2023-02-07T10:58:52;103326.72;;;5.63;43.88
6778;BME280;3426;52.244;10.534;2023-02-07T11:01:23;103327.03;;;5.97;43.81
6778;BME280;3426;52.244;10.534;2023-02-07T11:03:51;103323.22;;;5.66;42.30
6778;BME280;3426;52.244;10.534;2023-02-07T11:06:30;103310.84;;;5.51;42.64
6778;BME280;3426;52.244;10.534;2023-02-07T11:09:22;103314.13;;;5.30;42.86
6778;BME280;3426;52.244;10.534;2023-02-07T11:11:50;103308.16;;;4.69;43.51
6778;BME280;3426;52.244;10.534;2023-02-07T11:14:23;103306.81;;;5.01;43.99
6778;BME280;3426;52.244;10.534;2023-02-07T11:16:56;103310.97;;;4.84;44.17
6778;BME280;3426;52.244;10.534;2023-02-07T11:19:25;103303.91;;;4.78;42.66
6778;BME280;3426;52.244;10.534;2023-02-07T11:22:09;103309.75;;;5.32;43.14
6778;BME280;3426;52.244;10.534;2023-02-07T11:24:41;103298.09;;;5.05;42.66
6778;BME280;3426;52.244;10.534;2023-02-07T11:27:15;103296.38;;;5.08;41.60
6778;BME280;3426;52.244;10.534;2023-02-07T12:26:29;103257.84;;;5.07;46.51
6778;BME280;3426;52.244;10.534;2023-02-07T12:34:27;103250.41;;;4.67;48.53
6778;BME280;3426;52.244;10.534;2023-02-07T12:40:42;103254.56;;;5.29;47.73
6778;BME280;3426;52.244;10.534;2023-02-07T12:43:16;103251.19;;;5.45;47.67
6778;BME280;3426;52.244;10.534;2023-02-07T12:45:58;103254.22;;;4.95;48.63
6778;BME280;3426;52.244;10.534;2023-02-07T12:54:51;103237.91;;;5.30;48.78
6778;BME280;3426;52.244;10.534;2023-02-07T12:56:59;103232.09;;;4.73;49.78
6778;BME280;3426;52.244;10.534;2023-02-07T13:05:44;103241.63;;;5.53;48.61
6778;BME280;3426;52.244;10.534;2023-02-07T13:08:17;103238.09;;;5.51;47.89
6778;BME280;3426;52.244;10.534;2023-02-07T13:16:50;103238.78;;;5.29;48.49
6778;BME280;3426;52.244;10.534;2023-02-07T13:21:56;103220.75;;;5.76;48.95
6778;BME280;3426;52.244;10.534;2023-02-07T13:24:27;103223.72;;;6.25;47.93
6778;BME280;3426;52.244;10.534;2023-02-07T13:27:06;103223.31;;;5.63;48.77
6778;BME280;3426;52.244;10.534;2023-02-07T13:29:35;103213.97;;;6.10;48.56
6778;BME280;3426;52.244;10.534;2023-02-07T13:32:07;103202.41;;;5.87;48.64
6778;BME280;3426;52.244;10.534;2023-02-07T13:34:47;103205.25;;;6.16;48.45
6778;BME280;3426;52.244;10.534;2023-02-07T13:37:17;103216.25;;;5.58;48.56
6778;BME280;3426;52.244;10.534;2023-02-07T13:40:32;103204.31;;;6.06;48.29
6778;BME280;3426;52.244;10.534;2023-02-07T13:43:12;103217.47;;;6.03;48.37
6778;BME280;3426;52.244;10.534;2023-02-07T13:46:07;103218.34;;;6.05;48.66
6778;BME280;3426;52.244;10.534;2023-02-07T13:48:40;103202.75;;;6.48;47.55
6778;BME280;3426;52.244;10.534;2023-02-07T13:51:44;103205.84;;;5.77;48.63
6778;BME280;3426;52.244;10.534;2023-02-07T13:56:56;103208.88;;;6.43;47.63
6778;BME280;3426;52.244;10.534;2023-02-07T13:59:43;103199.97;;;6.07;47.92
6778;BME280;3426;52.244;10.534;2023-02-07T14:02:16;103198.34;;;6.43;46.51
6778;BME280;3426;52.244;10.534;2023-02-07T14:07:39;103213.91;;;5.97;44.52
6778;BME280;3426;52.244;10.534;2023-02-07T14:10:05;103215.16;;;5.30;44.07
6778;BME280;3426;52.244;10.534;2023-02-07T14:12:35;103219.03;;;5.83;43.06
6778;BME280;3426;52.244;10.534;2023-02-07T14:21:26;103216.94;;;5.36;42.84
6778;BME280;3426;52.244;10.534;2023-02-07T14:26:48;103218.91;;;5.62;41.68
6778;BME280;3426;52.244;10.534;2023-02-07T14:32:45;103233.38;;;5.14;40.85
6778;BME280;3426;52.244;10.534;2023-02-07T14:37:38;103229.22;;;5.34;42.80
6778;BME280;3426;52.244;10.534;2023-02-07T14:40:07;103230.28;;;5.57;43.20
6778;BME280;3426;52.244;10.534;2023-02-07T14:42:52;103229.41;;;5.57;44.98
6778;BME280;3426;52.244;10.534;2023-02-07T14:45:20;103229.44;;;5.65;46.51
6778;BME280;3426;52.244;10.534;2023-02-07T14:47:48;103229.34;;;5.51;47.75
6778;BME280;3426;52.244;10.534;2023-02-07T14:50:21;103223.88;;;5.26;49.36
6778;BME280;3426;52.244;10.534;2023-02-07T14:52:50;103233.78;;;5.59;48.76
6778;BME280;3426;52.244;10.534;2023-02-07T14:55:20;103229.56;;;5.80;48.13
6778;BME280;3426;52.244;10.534;2023-02-07T14:58:07;103230.97;;;5.35;49.16
6778;BME280;3426;52.244;10.534;2023-02-07T15:00:45;103243.66;;;4.89;50.26
6778;BME280;3426;52.244;10.534;2023-02-07T15:03:18;103236.28;;;5.44;49.65
6778;BME280;3426;52.244;10.534;2023-02-07T15:05:55;103242.13;;;5.13;49.84
6778;BME280;3426;52.244;10.534;2023-02-07T15:08:23;103245.22;;;4.75;50.75
6778;BME280;3426;52.244;10.534;2023-02-07T15:10:58;103246.69;;;4.48;50.96
6778;BME280;3426;52.244;10.534;2023-02-07T15:13:46;103249.03;;;4.27;51.78
6778;BME280;3426;52.244;10.534;2023-02-07T15:16:22;103244.28;;;4.68;51.38
6778;BME280;3426;52.244;10.534;2023-02-07T15:24:01;103240.22;;;4.98;51.07
6778;BME280;3426;52.244;10.534;2023-02-07T15:26:28;103243.78;;;5.04;52.02
6778;BME280;3426;52.244;10.534;2023-02-07T15:29:06;103244.78;;;4.38;54.48
6778;BME280;3426;52.244;10.534;2023-02-07T15:31:38;103241.72;;;4.76;53.81
6778;BME280;3426;52.244;10.534;2023-02-07T15:34:11;103232.97;;;4.74;54.14
6778;BME280;3426;52.244;10.534;2023-02-07T15:36:46;103234.44;;;4.50;54.77
6778;BME280;3426;52.244;10.534;2023-02-07T15:41:50;103227.38;;;4.45;55.55
6778;BME280;3426;52.244;10.534;2023-02-07T15:44:21;103214.06;;;5.09;54.39
6778;BME280;3426;52.244;10.534;2023-02-07T15:46:55;103218.03;;;4.67;55.25
6778;BME280;3426;52.244;10.534;2023-02-07T15:49:28;103218.28;;;4.90;54.37
6778;BME280;3426;52.244;10.534;2023-02-07T15:52:23;103220.59;;;3.97;58.10
6778;BME280;3426;52.244;10.534;2023-02-07T15:54:53;103210.44;;;3.58;60.47
6778;BME280;3426;52.244;10.534;2023-02-07T15:57:29;103214.69;;;4.10;59.17
6778;BME280;3426;52.244;10.534;2023-02-07T16:00:20;103210.63;;;4.34;58.90
6778;BME280;3426;52.244;10.534;2023-02-07T16:02:55;103213.25;;;4.34;59.46
6778;BME280;3426;52.244;10.534;2023-02-07T16:05:25;103199.25;;;4.35;59.17
6778;BME280;3426;52.244;10.534;2023-02-07T16:07:53;103205.03;;;4.08;59.63
6778;BME280;3426;52.244;10.534;2023-02-07T16:12:52;103205.38;;;4.34;59.90
6778;BME280;3426;52.244;10.534;2023-02-07T16:15:31;103202.47;;;4.12;61.10
6778;BME280;3426;52.244;10.534;2023-02-07T16:17:59;103212.47;;;3.77;62.17